sensor_id;sensor_type;location;lat;lon;timestamp;pressure;altitude;pressure_sealevel;temperature;humidity
4981;BME280;2507;50.392;7.482;2024-02-26T00:01:22;98920.41;;;10.71;51.86
4981;BME280;2507;50.392;7.482;2024-02-26T00:03:48;98914.09;;;10.81;51.73
4981;BME280;2507;50.392;7.482;2024-02-26T00:06:13;98911.09;;;10.94;51.20
4981;BME280;2507;50.392;7.482;2024-02-26T00:08:38;98914.25;;;10.62;52.74
4981;BME280;2507;50.392;7.482;2024-02-26T00:11:04;98915.88;;;10.10;54.89
4981;BME280;2507;50.392;7.482;2024-02-26T00:13:29;98905.78;;;10.33;54.39
4981;BME280;2507;50.392;7.482;2024-02-26T00:15:54;98903.25;;;10.41;53.46
4981;BME280;2507;50.392;7.482;2024-02-26T00:18:19;98898.00;;;10.59;53.26
4981;BME280;2507;50.392;7.482;2024-02-26T00:20:45;98896.94;;;10.52;53.24
4981;BME280;2507;50.392;7.482;2024-02-26T00:23:10;98904.72;;;10.44;53.80
4981;BME280;2507;50.392;7.482;2024-02-26T00:25:35;98906.41;;;10.27;55.11
4981;BME280;2507;50.392;7.482;2024-02-26T00:28:03;98899.78;;;10.23;55.51
4981;BME280;2507;50.392;7.482;2024-02-26T00:30:28;98903.91;;;10.25;56.17
4981;BME280;2507;50.392;7.482;2024-02-26T00:32:53;98909.28;;;10.24;56.14
4981;BME280;2507;50.392;7.482;2024-02-26T00:35:18;98915.53;;;10.23;56.58
4981;BME280;2507;50.392;7.482;2024-02-26T00:37:45;98911.22;;;10.22;57.07
4981;BME280;2507;50.392;7.482;2024-02-26T00:40:11;98898.81;;;10.24;57.21
4981;BME280;2507;50.392;7.482;2024-02-26T00:42:36;98899.78;;;10.23;57.61
4981;BME280;2507;50.392;7.482;2024-02-26T00:45:02;98901.59;;;10.22;57.15
4981;BME280;2507;50.392;7.482;2024-02-26T00:47:27;98889.66;;;10.10;57.23
4981;BME280;2507;50.392;7.482;2024-02-26T00:49:52;98882.94;;;9.71;58.38
4981;BME280;2507;50.392;7.482;2024-02-26T00:52:17;98870.53;;;9.46;59.49
4981;BME280;2507;50.392;7.482;2024-02-26T00:54:43;98872.72;;;9.51;59.43
4981;BME280;2507;50.392;7.482;2024-02-26T00:57:08;98875.72;;;9.83;58.98
4981;BME280;2507;50.392;7.482;2024-02-26T00:59:33;98879.19;;;10.10;58.08
4981;BME280;2507;50.392;7.482;2024-02-26T01:01:58;98888.34;;;9.97;59.24
4981;BME280;2507;50.392;7.482;2024-02-26T01:04:26;98885.63;;;10.16;56.73
4981;BME280;2507;50.392;7.482;2024-02-26T01:06:52;98890.41;;;9.93;58.58
4981;BME280;2507;50.392;7.482;2024-02-26T01:09:17;98902.03;;;9.91;58.98
4981;BME280;2507;50.392;7.482;2024-02-26T01:11:43;98897.97;;;9.96;58.34
4981;BME280;2507;50.392;7.482;2024-02-26T01:14:08;98892.63;;;10.25;57.45
4981;BME280;2507;50.392;7.482;2024-02-26T01:16:33;98887.00;;;10.38;56.08
4981;BME280;2507;50.392;7.482;2024-02-26T01:18:59;98888.88;;;10.45;55.21
4981;BME280;2507;50.392;7.482;2024-02-26T01:21:24;98887.22;;;10.62;54.75
4981;BME280;2507;50.392;7.482;2024-02-26T01:23:49;98883.63;;;10.45;55.45
4981;BME280;2507;50.392;7.482;2024-02-26T01:26:14;98871.78;;;10.41;55.28
4981;BME280;2507;50.392;7.482;2024-02-26T01:28:40;98867.50;;;10.40;54.47
4981;BME280;2507;50.392;7.482;2024-02-26T01:31:05;98874.22;;;10.60;54.13
4981;BME280;2507;50.392;7.482;2024-02-26T01:33:32;98870.22;;;10.91;53.38
4981;BME280;2507;50.392;7.482;2024-02-26T01:35:58;98867.00;;;10.97;52.41
4981;BME280;2507;50.392;7.482;2024-02-26T01:38:23;98868.81;;;10.79;53.12
4981;BME280;2507;50.392;7.482;2024-02-26T01:40:48;98868.50;;;10.82;53.11
4981;BME280;2507;50.392;7.482;2024-02-26T01:43:13;98872.47;;;10.86;52.61
4981;BME280;2507;50.392;7.482;2024-02-26T01:45:39;98864.84;;;10.75;53.24
4981;BME280;2507;50.392;7.482;2024-02-26T01:48:04;98859.00;;;10.64;53.47
4981;BME280;2507;50.392;7.482;2024-02-26T01:50:30;98860.00;;;10.63;53.47
4981;BME280;2507;50.392;7.482;2024-02-26T01:52:57;98859.28;;;10.53;53.90
4981;BME280;2507;50.392;7.482;2024-02-26T01:55:23;98848.47;;;10.56;54.28
4981;BME280;2507;50.392;7.482;2024-02-26T01:57:50;98833.28;;;10.24;55.15
4981;BME280;2507;50.392;7.482;2024-02-26T02:00:18;98841.47;;;9.94;56.58
4981;BME280;2507;50.392;7.482;2024-02-26T02:02:44;98839.81;;;9.93;56.66
4981;BME280;2507;50.392;7.482;2024-02-26T02:05:12;98845.19;;;9.91;56.61
4981;BME280;2507;50.392;7.482;2024-02-26T02:07:40;98859.03;;;9.84;57.27
4981;BME280;2507;50.392;7.482;2024-02-26T02:10:06;98874.72;;;9.66;58.11
4981;BME280;2507;50.392;7.482;2024-02-26T02:12:32;98879.41;;;9.63;57.72
4981;BME280;2507;50.392;7.482;2024-02-26T02:14:59;98885.03;;;9.68;57.52
4981;BME280;2507;50.392;7.482;2024-02-26T02:17:24;98880.44;;;9.79;57.84
4981;BME280;2507;50.392;7.482;2024-02-26T02:19:50;98891.16;;;9.86;56.81
4981;BME280;2507;50.392;7.482;2024-02-26T02:22:15;98883.28;;;9.86;57.87
4981;BME280;2507;50.392;7.482;2024-02-26T02:24:40;98898.28;;;9.93;57.90
4981;BME280;2507;50.392;7.482;2024-02-26T02:27:06;98892.22;;;9.93;57.89
4981;BME280;2507;50.392;7.482;2024-02-26T02:29:31;98889.69;;;10.01;57.78
4981;BME280;2507;50.392;7.482;2024-02-26T02:31:57;98878.72;;;10.15;57.44
4981;BME280;2507;50.392;7.482;2024-02-26T02:34:22;98877.78;;;10.16;57.27
4981;BME280;2507;50.392;7.482;2024-02-26T02:36:49;98873.78;;;10.12;57.77
4981;BME280;2507;50.392;7.482;2024-02-26T02:39:15;98872.38;;;10.17;57.47
4981;BME280;2507;50.392;7.482;2024-02-26T02:41:40;98882.66;;;10.28;57.27
4981;BME280;2507;50.392;7.482;2024-02-26T02:44:06;98897.19;;;10.23;58.30
4981;BME280;2507;50.392;7.482;2024-02-26T02:46:31;98892.63;;;10.25;59.06
4981;BME280;2507;50.392;7.482;2024-02-26T02:48:58;98888.25;;;10.34;58.83
4981;BME280;2507;50.392;7.482;2024-02-26T02:51:23;98899.94;;;10.39;57.68
4981;BME280;2507;50.392;7.482;2024-02-26T02:53:49;98896.59;;;10.29;59.11
4981;BME280;2507;50.392;7.482;2024-02-26T02:56:14;98899.41;;;10.18;59.38
4981;BME280;2507;50.392;7.482;2024-02-26T02:58:39;98905.72;;;10.25;58.72
4981;BME280;2507;50.392;7.482;2024-02-26T03:01:04;98899.59;;;10.07;59.31
4981;BME280;2507;50.392;7.482;2024-02-26T03:03:30;98896.97;;;10.07;59.51
4981;BME280;2507;50.392;7.482;2024-02-26T03:05:55;98903.69;;;10.19;59.29
4981;BME280;2507;50.392;7.482;2024-02-26T03:08:21;98893.97;;;10.47;58.21
4981;BME280;2507;50.392;7.482;2024-02-26T03:10:46;98886.31;;;10.53;58.09
4981;BME280;2507;50.392;7.482;2024-02-26T03:13:11;98891.63;;;10.61;58.09
4981;BME280;2507;50.392;7.482;2024-02-26T03:15:36;98894.78;;;10.65;58.32
4981;BME280;2507;50.392;7.482;2024-02-26T03:18:02;98898.31;;;10.38;58.90
4981;BME280;2507;50.392;7.482;2024-02-26T03:20:27;98902.47;;;10.31;59.58
4981;BME280;2507;50.392;7.482;2024-02-26T03:22:52;98899.84;;;10.13;59.77
4981;BME280;2507;50.392;7.482;2024-02-26T03:25:17;98901.59;;;9.95;60.13
4981;BME280;2507;50.392;7.482;2024-02-26T03:27:43;98903.03;;;9.80;61.43
4981;BME280;2507;50.392;7.482;2024-02-26T03:30:09;98897.00;;;9.80;61.97
4981;BME280;2507;50.392;7.482;2024-02-26T03:32:35;98889.00;;;9.99;61.64
4981;BME280;2507;50.392;7.482;2024-02-26T03:35:00;98895.75;;;10.01;61.26
4981;BME280;2507;50.392;7.482;2024-02-26T03:37:25;98891.47;;;10.00;61.40
4981;BME280;2507;50.392;7.482;2024-02-26T03:39:51;98892.00;;;10.04;61.94
4981;BME280;2507;50.392;7.482;2024-02-26T03:42:16;98897.72;;;9.99;62.16
4981;BME280;2507;50.392;7.482;2024-02-26T03:44:42;98901.38;;;10.06;62.02
4981;BME280;2507;50.392;7.482;2024-02-26T03:47:07;98893.00;;;10.03;62.36
4981;BME280;2507;50.392;7.482;2024-02-26T03:49:32;98903.63;;;10.01;62.14
4981;BME280;2507;50.392;7.482;2024-02-26T03:51:57;98899.59;;;10.07;62.79
4981;BME280;2507;50.392;7.482;2024-02-26T03:54:23;98902.03;;;10.18;62.46
4981;BME280;2507;50.392;7.482;2024-02-26T03:56:48;98895.13;;;10.17;62.02
4981;BME280;2507;50.392;7.482;2024-02-26T03:59:13;98898.59;;;10.08;63.12
4981;BME280;2507;50.392;7.482;2024-02-26T04:01:39;98908.63;;;10.22;63.14
4981;BME280;2507;50.392;7.482;2024-02-26T04:04:04;98917.47;;;10.21;62.20
4981;BME280;2507;50.392;7.482;2024-02-26T04:06:29;98912.22;;;10.21;62.25
4981;BME280;2507;50.392;7.482;2024-02-26T04:08:54;98907.88;;;10.12;62.31
4981;BME280;2507;50.392;7.482;2024-02-26T04:11:20;98907.03;;;10.02;63.57
4981;BME280;2507;50.392;7.482;2024-02-26T04:13:45;98909.78;;;9.83;63.93
4981;BME280;2507;50.392;7.482;2024-02-26T04:16:11;98906.53;;;9.98;63.49
4981;BME280;2507;50.392;7.482;2024-02-26T04:18:37;98905.72;;;9.98;63.26
4981;BME280;2507;50.392;7.482;2024-02-26T04:21:04;98903.88;;;9.81;63.99
4981;BME280;2507;50.392;7.482;2024-02-26T04:23:30;98908.53;;;9.87;64.40
4981;BME280;2507;50.392;7.482;2024-02-26T04:25:55;98905.63;;;10.07;63.51
4981;BME280;2507;50.392;7.482;2024-02-26T04:28:20;98906.59;;;10.16;63.31
4981;BME280;2507;50.392;7.482;2024-02-26T04:30:47;98910.34;;;10.04;63.60
4981;BME280;2507;50.392;7.482;2024-02-26T04:33:13;98912.94;;;9.86;64.49
4981;BME280;2507;50.392;7.482;2024-02-26T04:35:38;98914.44;;;9.89;64.70
4981;BME280;2507;50.392;7.482;2024-02-26T04:38:03;98913.03;;;9.94;64.60
4981;BME280;2507;50.392;7.482;2024-02-26T04:40:29;98904.59;;;10.00;64.65
4981;BME280;2507;50.392;7.482;2024-02-26T04:42:54;98911.53;;;9.92;64.58
4981;BME280;2507;50.392;7.482;2024-02-26T04:45:19;98913.44;;;9.72;65.61
4981;BME280;2507;50.392;7.482;2024-02-26T04:47:44;98909.09;;;9.81;65.66
4981;BME280;2507;50.392;7.482;2024-02-26T04:50:10;98905.81;;;9.79;65.89
4981;BME280;2507;50.392;7.482;2024-02-26T04:52:35;98911.16;;;9.87;65.55
4981;BME280;2507;50.392;7.482;2024-02-26T04:55:01;98912.03;;;9.78;65.80
4981;BME280;2507;50.392;7.482;2024-02-26T04:57:26;98907.94;;;9.93;66.02
4981;BME280;2507;50.392;7.482;2024-02-26T04:59:52;98909.94;;;9.81;66.03
4981;BME280;2507;50.392;7.482;2024-02-26T05:02:17;98910.75;;;9.82;66.70
4981;BME280;2507;50.392;7.482;2024-02-26T05:04:42;98919.19;;;9.76;66.29
4981;BME280;2507;50.392;7.482;2024-02-26T05:07:08;98916.81;;;9.82;66.05
4981;BME280;2507;50.392;7.482;2024-02-26T05:09:34;98914.78;;;9.76;66.71
4981;BME280;2507;50.392;7.482;2024-02-26T05:12:00;98916.91;;;9.63;67.44
4981;BME280;2507;50.392;7.482;2024-02-26T05:14:25;98917.94;;;9.53;68.19
4981;BME280;2507;50.392;7.482;2024-02-26T05:16:50;98916.75;;;9.65;68.11
4981;BME280;2507;50.392;7.482;2024-02-26T05:19:15;98918.88;;;9.52;67.97
4981;BME280;2507;50.392;7.482;2024-02-26T05:21:41;98918.72;;;9.53;68.48
4981;BME280;2507;50.392;7.482;2024-02-26T05:24:07;98919.72;;;9.43;69.15
4981;BME280;2507;50.392;7.482;2024-02-26T05:26:33;98927.09;;;9.20;70.46
4981;BME280;2507;50.392;7.482;2024-02-26T05:28:58;98923.28;;;8.95;72.54
4981;BME280;2507;50.392;7.482;2024-02-26T05:31:24;98927.97;;;8.73;73.86
4981;BME280;2507;50.392;7.482;2024-02-26T05:33:50;98925.66;;;8.70;74.99
4981;BME280;2507;50.392;7.482;2024-02-26T05:36:19;98925.09;;;8.76;74.70
4981;BME280;2507;50.392;7.482;2024-02-26T05:38:45;98929.75;;;8.91;74.99
4981;BME280;2507;50.392;7.482;2024-02-26T05:41:11;98929.16;;;9.16;72.28
4981;BME280;2507;50.392;7.482;2024-02-26T05:43:36;98923.72;;;9.47;70.60
4981;BME280;2507;50.392;7.482;2024-02-26T05:46:02;98926.03;;;9.50;69.16
4981;BME280;2507;50.392;7.482;2024-02-26T05:48:27;98935.94;;;9.65;68.36
4981;BME280;2507;50.392;7.482;2024-02-26T05:50:53;98932.94;;;9.51;68.15
4981;BME280;2507;50.392;7.482;2024-02-26T05:53:18;98932.69;;;9.44;68.22
4981;BME280;2507;50.392;7.482;2024-02-26T05:55:43;98935.56;;;9.51;68.56
4981;BME280;2507;50.392;7.482;2024-02-26T05:58:08;98936.91;;;9.55;67.69
4981;BME280;2507;50.392;7.482;2024-02-26T06:00:34;98941.88;;;9.58;67.84
4981;BME280;2507;50.392;7.482;2024-02-26T06:03:00;98939.81;;;9.52;67.69
4981;BME280;2507;50.392;7.482;2024-02-26T06:05:27;98941.75;;;9.50;67.96
4981;BME280;2507;50.392;7.482;2024-02-26T06:07:52;98940.69;;;9.43;68.31
4981;BME280;2507;50.392;7.482;2024-02-26T06:10:17;98939.63;;;9.26;69.16
4981;BME280;2507;50.392;7.482;2024-02-26T06:12:46;98941.53;;;9.24;69.55
4981;BME280;2507;50.392;7.482;2024-02-26T06:15:11;98944.69;;;9.27;69.18
4981;BME280;2507;50.392;7.482;2024-02-26T06:17:37;98946.25;;;9.20;69.98
4981;BME280;2507;50.392;7.482;2024-02-26T06:20:02;98955.47;;;9.15;70.20
4981;BME280;2507;50.392;7.482;2024-02-26T06:22:29;98959.06;;;9.14;70.50
4981;BME280;2507;50.392;7.482;2024-02-26T06:24:55;98965.13;;;9.14;70.66
4981;BME280;2507;50.392;7.482;2024-02-26T06:27:20;98971.19;;;9.05;71.05
4981;BME280;2507;50.392;7.482;2024-02-26T06:29:46;98971.03;;;9.16;70.90
4981;BME280;2507;50.392;7.482;2024-02-26T06:32:13;98966.91;;;9.23;70.81
4981;BME280;2507;50.392;7.482;2024-02-26T06:34:39;98974.19;;;9.29;69.75
4981;BME280;2507;50.392;7.482;2024-02-26T06:37:06;98972.16;;;9.14;71.02
4981;BME280;2507;50.392;7.482;2024-02-26T06:39:31;98980.41;;;9.09;71.17
4981;BME280;2507;50.392;7.482;2024-02-26T06:41:56;98977.53;;;9.12;71.43
4981;BME280;2507;50.392;7.482;2024-02-26T06:44:26;98984.41;;;9.13;70.84
4981;BME280;2507;50.392;7.482;2024-02-26T06:46:56;98990.63;;;9.12;70.79
4981;BME280;2507;50.392;7.482;2024-02-26T06:49:22;98992.78;;;9.26;70.80
4981;BME280;2507;50.392;7.482;2024-02-26T06:51:47;99000.78;;;9.15;70.68
4981;BME280;2507;50.392;7.482;2024-02-26T06:54:12;98997.09;;;9.18;70.49
4981;BME280;2507;50.392;7.482;2024-02-26T06:56:37;99008.38;;;9.09;71.34
4981;BME280;2507;50.392;7.482;2024-02-26T06:59:03;99011.25;;;9.15;71.23
4981;BME280;2507;50.392;7.482;2024-02-26T07:01:28;99006.84;;;9.06;71.18
4981;BME280;2507;50.392;7.482;2024-02-26T07:03:53;99010.44;;;8.86;71.79
4981;BME280;2507;50.392;7.482;2024-02-26T07:06:18;99013.88;;;8.77;72.39
4981;BME280;2507;50.392;7.482;2024-02-26T07:08:44;99011.78;;;8.71;72.83
4981;BME280;2507;50.392;7.482;2024-02-26T07:11:10;99013.97;;;8.57;72.95
4981;BME280;2507;50.392;7.482;2024-02-26T07:13:35;99023.63;;;8.56;73.83
4981;BME280;2507;50.392;7.482;2024-02-26T07:16:01;99023.72;;;8.55;74.47
4981;BME280;2507;50.392;7.482;2024-02-26T07:18:26;99019.06;;;8.58;74.20
4981;BME280;2507;50.392;7.482;2024-02-26T07:20:51;99029.97;;;8.63;73.62
4981;BME280;2507;50.392;7.482;2024-02-26T07:23:16;99034.94;;;8.76;73.77
4981;BME280;2507;50.392;7.482;2024-02-26T07:25:42;99035.19;;;8.73;73.52
4981;BME280;2507;50.392;7.482;2024-02-26T07:28:09;99027.47;;;8.71;74.10
4981;BME280;2507;50.392;7.482;2024-02-26T07:30:34;99032.59;;;8.82;74.23
4981;BME280;2507;50.392;7.482;2024-02-26T07:32:59;99041.53;;;8.89;73.78
4981;BME280;2507;50.392;7.482;2024-02-26T07:35:25;99035.63;;;8.87;73.31
4981;BME280;2507;50.392;7.482;2024-02-26T07:37:50;99045.53;;;8.84;74.04
4981;BME280;2507;50.392;7.482;2024-02-26T07:40:16;99044.31;;;8.97;73.66
4981;BME280;2507;50.392;7.482;2024-02-26T07:42:41;99037.28;;;9.07;73.48
4981;BME280;2507;50.392;7.482;2024-02-26T07:45:06;99038.25;;;9.06;73.89
4981;BME280;2507;50.392;7.482;2024-02-26T07:47:32;99042.38;;;9.28;73.13
4981;BME280;2507;50.392;7.482;2024-02-26T07:49:59;99040.44;;;9.40;72.75
4981;BME280;2507;50.392;7.482;2024-02-26T07:52:25;99046.63;;;9.29;72.39
4981;BME280;2507;50.392;7.482;2024-02-26T07:54:50;99050.78;;;9.41;72.97
4981;BME280;2507;50.392;7.482;2024-02-26T07:57:15;99051.16;;;9.56;72.80
4981;BME280;2507;50.392;7.482;2024-02-26T07:59:42;99059.41;;;9.61;72.45
4981;BME280;2507;50.392;7.482;2024-02-26T08:02:07;99059.50;;;9.78;71.77
4981;BME280;2507;50.392;7.482;2024-02-26T08:04:32;99070.13;;;9.86;70.37
4981;BME280;2507;50.392;7.482;2024-02-26T08:06:58;99069.59;;;9.83;70.86
4981;BME280;2507;50.392;7.482;2024-02-26T08:09:23;99069.72;;;9.81;71.83
4981;BME280;2507;50.392;7.482;2024-02-26T08:11:48;99083.59;;;10.01;70.25
4981;BME280;2507;50.392;7.482;2024-02-26T08:14:13;99082.50;;;10.03;69.62
4981;BME280;2507;50.392;7.482;2024-02-26T08:16:39;99074.53;;;9.86;70.17
4981;BME280;2507;50.392;7.482;2024-02-26T08:19:04;99080.34;;;9.80;70.27
4981;BME280;2507;50.392;7.482;2024-02-26T08:21:29;99080.91;;;9.83;70.21
4981;BME280;2507;50.392;7.482;2024-02-26T08:23:55;99077.31;;;9.75;70.26
4981;BME280;2507;50.392;7.482;2024-02-26T08:26:20;99082.97;;;9.80;70.75
4981;BME280;2507;50.392;7.482;2024-02-26T08:28:47;99087.22;;;9.81;70.10
4981;BME280;2507;50.392;7.482;2024-02-26T08:31:14;99094.78;;;9.93;70.17
4981;BME280;2507;50.392;7.482;2024-02-26T08:33:39;99098.25;;;9.84;69.40
4981;BME280;2507;50.392;7.482;2024-02-26T08:36:05;99105.03;;;9.87;69.11
4981;BME280;2507;50.392;7.482;2024-02-26T08:38:31;99110.41;;;9.85;69.57
4981;BME280;2507;50.392;7.482;2024-02-26T08:40:56;99118.13;;;9.77;69.51
4981;BME280;2507;50.392;7.482;2024-02-26T08:43:21;99121.97;;;9.73;70.04
4981;BME280;2507;50.392;7.482;2024-02-26T08:45:47;99123.50;;;9.57;70.78
4981;BME280;2507;50.392;7.482;2024-02-26T08:48:12;99121.28;;;9.71;69.88
4981;BME280;2507;50.392;7.482;2024-02-26T08:50:37;99122.13;;;9.62;70.11
4981;BME280;2507;50.392;7.482;2024-02-26T08:53:02;99122.69;;;9.66;70.55
4981;BME280;2507;50.392;7.482;2024-02-26T08:55:29;99121.97;;;9.64;70.22
4981;BME280;2507;50.392;7.482;2024-02-26T08:57:54;99130.97;;;9.52;70.66
4981;BME280;2507;50.392;7.482;2024-02-26T09:00:19;99122.56;;;9.39;70.75
4981;BME280;2507;50.392;7.482;2024-02-26T09:02:46;99132.19;;;9.19;71.86
4981;BME280;2507;50.392;7.482;2024-02-26T09:05:12;99129.72;;;9.17;72.20
4981;BME280;2507;50.392;7.482;2024-02-26T09:07:37;99126.41;;;9.25;71.94
4981;BME280;2507;50.392;7.482;2024-02-26T09:10:02;99133.97;;;9.28;71.70
4981;BME280;2507;50.392;7.482;2024-02-26T09:12:27;99136.59;;;9.18;71.74
4981;BME280;2507;50.392;7.482;2024-02-26T09:14:53;99135.22;;;9.24;72.39
4981;BME280;2507;50.392;7.482;2024-02-26T09:17:20;99144.97;;;9.22;71.40
4981;BME280;2507;50.392;7.482;2024-02-26T09:19:46;99147.34;;;9.25;70.31
4981;BME280;2507;50.392;7.482;2024-02-26T09:22:11;99151.59;;;9.07;70.08
4981;BME280;2507;50.392;7.482;2024-02-26T09:24:36;99144.50;;;8.79;71.04
4981;BME280;2507;50.392;7.482;2024-02-26T09:27:02;99146.81;;;8.82;71.25
4981;BME280;2507;50.392;7.482;2024-02-26T09:29:27;99150.03;;;8.85;71.20
4981;BME280;2507;50.392;7.482;2024-02-26T09:31:52;99151.66;;;8.86;71.45
4981;BME280;2507;50.392;7.482;2024-02-26T09:34:17;99157.47;;;8.90;71.48
4981;BME280;2507;50.392;7.482;2024-02-26T09:36:43;99156.53;;;8.91;71.13
4981;BME280;2507;50.392;7.482;2024-02-26T09:39:08;99156.28;;;9.03;71.10
4981;BME280;2507;50.392;7.482;2024-02-26T09:41:36;99151.47;;;9.18;70.83
4981;BME280;2507;50.392;7.482;2024-02-26T09:44:02;99158.22;;;9.20;70.85
4981;BME280;2507;50.392;7.482;2024-02-26T09:46:30;99154.22;;;9.26;71.18
4981;BME280;2507;50.392;7.482;2024-02-26T09:48:55;99157.69;;;9.46;70.93
4981;BME280;2507;50.392;7.482;2024-02-26T09:51:22;99165.84;;;9.62;70.49
4981;BME280;2507;50.392;7.482;2024-02-26T09:53:51;99166.09;;;9.78;70.33
4981;BME280;2507;50.392;7.482;2024-02-26T09:56:16;99166.50;;;9.83;70.49
4981;BME280;2507;50.392;7.482;2024-02-26T09:58:42;99167.72;;;10.07;69.21
4981;BME280;2507;50.392;7.482;2024-02-26T10:01:11;99162.06;;;9.93;68.18
4981;BME280;2507;50.392;7.482;2024-02-26T10:03:41;99159.31;;;10.04;69.12
4981;BME280;2507;50.392;7.482;2024-02-26T10:06:07;99162.63;;;10.25;68.83
4981;BME280;2507;50.392;7.482;2024-02-26T10:08:35;99171.50;;;10.51;69.02
4981;BME280;2507;50.392;7.482;2024-02-26T10:11:00;99170.63;;;10.60;66.50
4981;BME280;2507;50.392;7.482;2024-02-26T10:13:26;99170.25;;;10.55;66.76
4981;BME280;2507;50.392;7.482;2024-02-26T10:15:51;99167.19;;;10.60;66.23
4981;BME280;2507;50.392;7.482;2024-02-26T10:18:16;99184.00;;;10.67;66.95
4981;BME280;2507;50.392;7.482;2024-02-26T10:20:42;99179.63;;;10.58;65.82
4981;BME280;2507;50.392;7.482;2024-02-26T10:23:07;99184.50;;;10.43;67.28
4981;BME280;2507;50.392;7.482;2024-02-26T10:25:32;99192.75;;;10.58;66.97
4981;BME280;2507;50.392;7.482;2024-02-26T10:28:01;99194.81;;;10.54;67.34
4981;BME280;2507;50.392;7.482;2024-02-26T10:30:29;99191.38;;;10.44;65.74
4981;BME280;2507;50.392;7.482;2024-02-26T10:32:56;99199.41;;;10.43;65.83
4981;BME280;2507;50.392;7.482;2024-02-26T10:35:21;99205.94;;;10.29;65.60
4981;BME280;2507;50.392;7.482;2024-02-26T10:37:48;99197.53;;;10.16;67.17
4981;BME280;2507;50.392;7.482;2024-02-26T10:40:14;99206.34;;;10.34;67.43
4981;BME280;2507;50.392;7.482;2024-02-26T10:42:40;99211.19;;;10.29;66.49
4981;BME280;2507;50.392;7.482;2024-02-26T10:45:07;99219.19;;;10.08;66.59
4981;BME280;2507;50.392;7.482;2024-02-26T10:47:34;99225.13;;;10.10;66.70
4981;BME280;2507;50.392;7.482;2024-02-26T10:50:02;99221.38;;;10.03;66.65
4981;BME280;2507;50.392;7.482;2024-02-26T10:52:33;99227.19;;;10.07;66.58
4981;BME280;2507;50.392;7.482;2024-02-26T10:55:01;99230.59;;;10.07;66.44
4981;BME280;2507;50.392;7.482;2024-02-26T10:59:57;99230.94;;;10.14;66.50
4981;BME280;2507;50.392;7.482;2024-02-26T11:02:24;99230.63;;;10.17;66.61
4981;BME280;2507;50.392;7.482;2024-02-26T11:04:49;99236.56;;;10.19;66.31
4981;BME280;2507;50.392;7.482;2024-02-26T11:07:15;99236.97;;;10.34;65.87
4981;BME280;2507;50.392;7.482;2024-02-26T11:09:41;99249.13;;;10.25;66.38
4981;BME280;2507;50.392;7.482;2024-02-26T11:12:10;99256.25;;;10.42;65.84
4981;BME280;2507;50.392;7.482;2024-02-26T11:14:39;99268.13;;;10.46;65.13
4981;BME280;2507;50.392;7.482;2024-02-26T11:17:05;99262.34;;;10.52;65.25
4981;BME280;2507;50.392;7.482;2024-02-26T11:19:35;99260.56;;;10.43;64.95
4981;BME280;2507;50.392;7.482;2024-02-26T11:22:01;99258.47;;;10.47;65.38
4981;BME280;2507;50.392;7.482;2024-02-26T11:24:26;99264.41;;;10.49;65.55
4981;BME280;2507;50.392;7.482;2024-02-26T11:26:54;99263.97;;;10.44;65.60
4981;BME280;2507;50.392;7.482;2024-02-26T11:29:25;99261.66;;;10.50;65.79
4981;BME280;2507;50.392;7.482;2024-02-26T11:31:52;99261.94;;;10.47;66.03
4981;BME280;2507;50.392;7.482;2024-02-26T11:34:18;99257.34;;;10.59;66.48
4981;BME280;2507;50.392;7.482;2024-02-26T11:36:43;99262.56;;;10.68;67.00
4981;BME280;2507;50.392;7.482;2024-02-26T11:39:11;99253.28;;;10.83;66.04
4981;BME280;2507;50.392;7.482;2024-02-26T11:41:38;99253.31;;;11.10;65.82
4981;BME280;2507;50.392;7.482;2024-02-26T11:44:04;99251.78;;;11.08;65.46
4981;BME280;2507;50.392;7.482;2024-02-26T11:46:39;99246.56;;;11.25;64.92
4981;BME280;2507;50.392;7.482;2024-02-26T11:51:52;99255.25;;;11.08;64.43
4981;BME280;2507;50.392;7.482;2024-02-26T11:54:38;99253.81;;;11.23;64.33
4981;BME280;2507;50.392;7.482;2024-02-26T11:57:03;99257.91;;;11.26;63.41
4981;BME280;2507;50.392;7.482;2024-02-26T11:59:38;99256.53;;;11.22;63.50
4981;BME280;2507;50.392;7.482;2024-02-26T12:02:04;99263.13;;;11.08;63.58
4981;BME280;2507;50.392;7.482;2024-02-26T12:04:30;99255.81;;;11.02;64.64
4981;BME280;2507;50.392;7.482;2024-02-26T12:06:57;99262.72;;;11.03;64.44
4981;BME280;2507;50.392;7.482;2024-02-26T12:09:41;99267.91;;;11.13;64.44
4981;BME280;2507;50.392;7.482;2024-02-26T12:12:11;99276.75;;;11.21;64.59
4981;BME280;2507;50.392;7.482;2024-02-26T12:14:40;99277.31;;;11.15;65.38
4981;BME280;2507;50.392;7.482;2024-02-26T12:17:07;99286.66;;;11.27;64.70
4981;BME280;2507;50.392;7.482;2024-02-26T12:19:40;99289.47;;;11.16;64.74
4981;BME280;2507;50.392;7.482;2024-02-26T12:22:06;99292.78;;;11.18;64.68
4981;BME280;2507;50.392;7.482;2024-02-26T12:24:33;99291.13;;;11.17;64.72
4981;BME280;2507;50.392;7.482;2024-02-26T12:26:58;99291.50;;;11.22;63.82
4981;BME280;2507;50.392;7.482;2024-02-26T12:29:23;99288.50;;;11.17;64.36
4981;BME280;2507;50.392;7.482;2024-02-26T12:31:49;99291.88;;;11.00;64.43
4981;BME280;2507;50.392;7.482;2024-02-26T12:34:15;99304.63;;;10.86;65.61
4981;BME280;2507;50.392;7.482;2024-02-26T12:36:41;99306.66;;;11.01;65.03
4981;BME280;2507;50.392;7.482;2024-02-26T12:39:07;99308.00;;;11.05;64.85
4981;BME280;2507;50.392;7.482;2024-02-26T12:41:33;99308.13;;;11.13;64.36
4981;BME280;2507;50.392;7.482;2024-02-26T12:43:59;99313.16;;;11.07;64.12
4981;BME280;2507;50.392;7.482;2024-02-26T12:46:24;99302.66;;;11.07;64.46
4981;BME280;2507;50.392;7.482;2024-02-26T12:48:50;99320.47;;;11.03;64.79
4981;BME280;2507;50.392;7.482;2024-02-26T12:51:16;99318.56;;;10.96;64.63
4981;BME280;2507;50.392;7.482;2024-02-26T12:53:43;99317.59;;;10.97;65.30
4981;BME280;2507;50.392;7.482;2024-02-26T12:56:09;99327.41;;;10.95;65.04
4981;BME280;2507;50.392;7.482;2024-02-26T12:58:36;99337.47;;;10.99;64.80
4981;BME280;2507;50.392;7.482;2024-02-26T13:01:04;99334.00;;;11.08;64.45
4981;BME280;2507;50.392;7.482;2024-02-26T13:03:29;99334.53;;;11.12;64.77
4981;BME280;2507;50.392;7.482;2024-02-26T13:05:55;99333.81;;;11.19;64.10
4981;BME280;2507;50.392;7.482;2024-02-26T13:08:21;99336.53;;;11.27;64.23
4981;BME280;2507;50.392;7.482;2024-02-26T13:10:46;99340.88;;;11.09;64.52
4981;BME280;2507;50.392;7.482;2024-02-26T13:13:14;99347.66;;;11.21;64.69
4981;BME280;2507;50.392;7.482;2024-02-26T13:15:41;99343.31;;;11.30;64.31
4981;BME280;2507;50.392;7.482;2024-02-26T13:18:15;99351.97;;;11.40;63.50
4981;BME280;2507;50.392;7.482;2024-02-26T13:20:41;99341.34;;;11.42;63.88
4981;BME280;2507;50.392;7.482;2024-02-26T13:23:08;99351.03;;;11.31;64.13
4981;BME280;2507;50.392;7.482;2024-02-26T13:25:35;99340.50;;;11.41;63.51